createdAt,value
2018-07-14T00:00:45.180Z,17.67
2018-07-14T00:03:14.162Z,18.97
2018-07-14T00:05:43.157Z,23.07
2018-07-14T00:08:12.132Z,22.00
2018-07-14T00:10:42.012Z,21.50
2018-07-14T00:13:11.029Z,17.87
2018-07-14T00:15:40.062Z,19.90
2018-07-14T00:18:09.038Z,23.97
2018-07-14T00:20:39.202Z,21.97
2018-07-14T00:23:08.282Z,23.30
2018-07-14T00:25:42.694Z,19.23
2018-07-14T00:28:11.672Z,23.67
2018-07-14T00:30:40.617Z,17.93
2018-07-14T00:33:10.732Z,22.30
2018-07-14T00:35:39.717Z,25.80
2018-07-14T00:38:09.512Z,22.67
2018-07-14T00:40:38.507Z,19.60
2018-07-14T00:43:07.514Z,16.70
2018-07-14T00:45:36.470Z,26.70
2018-07-14T00:48:05.535Z,22.33
2018-07-14T00:50:34.515Z,20.47
2018-07-14T00:53:03.813Z,19.97
2018-07-14T00:55:33.616Z,22.67
2018-07-14T00:58:02.638Z,22.83
2018-07-14T01:00:32.704Z,18.40
2018-07-14T01:03:01.702Z,18.93
2018-07-14T01:05:31.936Z,24.60
2018-07-14T01:08:01.018Z,25.43
2018-07-14T01:10:29.970Z,23.17
2018-07-14T01:12:58.960Z,17.90
2018-07-14T01:15:27.969Z,24.23
2018-07-14T01:17:56.947Z,20.90
2018-07-14T01:20:25.922Z,19.13
2018-07-14T01:22:54.894Z,23.47
2018-07-14T01:25:24.882Z,20.97
2018-07-14T01:27:54.534Z,32.10
2018-07-14T01:30:23.526Z,20.50
2018-07-14T01:32:53.746Z,20.07
2018-07-14T01:35:22.714Z,19.27
2018-07-14T01:37:51.715Z,17.33
2018-07-14T01:40:20.676Z,21.90
2018-07-14T01:42:49.650Z,19.10
2018-07-14T01:45:18.599Z,23.23
2018-07-14T01:47:47.590Z,21.60
2018-07-14T01:50:16.526Z,30.37
2018-07-14T01:52:45.521Z,18.03
2018-07-14T01:55:14.487Z,22.10
2018-07-14T01:57:43.487Z,18.07
2018-07-14T02:00:12.952Z,20.53
2018-07-14T02:02:41.922Z,24.37
2018-07-14T02:05:10.882Z,23.67
2018-07-14T02:07:39.912Z,25.90
2018-07-14T02:10:09.245Z,22.70
2018-07-14T02:12:38.440Z,23.53
2018-07-14T02:15:07.418Z,24.30
2018-07-14T02:17:36.409Z,24.47
2018-07-14T02:20:05.509Z,23.57
2018-07-14T02:22:34.478Z,23.53
2018-07-14T02:25:03.439Z,27.57
2018-07-14T02:27:32.408Z,24.27
2018-07-14T02:30:01.122Z,24.50
2018-07-14T02:32:30.020Z,23.60
2018-07-14T02:34:58.979Z,28.03
2018-07-14T02:37:28.006Z,30.73
2018-07-14T02:39:56.951Z,35.13
2018-07-14T02:42:25.898Z,41.53
2018-07-14T02:44:55.017Z,48.00
2018-07-14T02:47:24.312Z,50.00
2018-07-14T02:49:53.307Z,41.03
2018-07-14T02:52:22.262Z,45.07
2018-07-14T02:54:52.805Z,44.77
2018-07-14T02:57:21.771Z,46.23
2018-07-14T02:59:51.304Z,36.23
2018-07-14T03:02:20.214Z,36.30
2018-07-14T03:04:49.185Z,34.60
2018-07-14T03:07:18.126Z,44.43
2018-07-14T03:09:47.106Z,34.33
2018-07-14T03:12:16.473Z,39.87
2018-07-14T03:14:45.481Z,38.60
2018-07-14T03:17:15.125Z,38.50
2018-07-14T03:19:44.807Z,39.03
2018-07-14T03:22:13.836Z,40.70
2018-07-14T03:24:42.827Z,43.13
2018-07-14T03:27:11.793Z,39.67
2018-07-14T03:29:40.823Z,41.80
2018-07-14T03:32:10.883Z,46.97
2018-07-14T03:34:39.853Z,37.23
2018-07-14T03:37:08.819Z,42.13
2018-07-14T03:39:37.794Z,44.17
2018-07-14T03:42:07.571Z,37.73
2018-07-14T03:44:36.559Z,42.10
2018-07-14T03:47:05.519Z,40.23
2018-07-14T03:49:35.029Z,42.73
2018-07-14T03:52:03.809Z,42.33
2018-07-14T03:54:32.731Z,42.77
2018-07-14T03:57:01.876Z,40.00
2018-07-14T03:59:31.377Z,39.93
2018-07-14T04:02:00.425Z,39.80
2018-07-14T04:04:29.398Z,43.70
2018-07-14T04:06:58.349Z,38.60
2018-07-14T04:09:28.651Z,39.47
2018-07-14T04:11:57.621Z,43.80
2018-07-14T04:14:26.621Z,52.30
2018-07-14T04:16:55.585Z,46.63
2018-07-14T04:19:24.566Z,48.10
2018-07-14T04:21:53.535Z,45.50
2018-07-14T04:24:22.518Z,48.57
2018-07-14T04:26:51.602Z,43.97
2018-07-14T04:29:21.830Z,43.80
2018-07-14T04:31:50.797Z,45.97
2018-07-14T04:34:19.802Z,50.47
2018-07-14T04:36:48.833Z,44.63
2018-07-14T04:39:17.807Z,51.73
2018-07-14T04:41:46.751Z,46.83
2018-07-14T04:44:15.817Z,51.27
2018-07-14T04:46:44.774Z,47.90
2018-07-14T04:49:13.743Z,46.10
2018-07-14T04:51:42.688Z,39.00
2018-07-14T04:54:13.525Z,37.30
2018-07-14T04:56:42.487Z,42.30
2018-07-14T04:59:11.470Z,38.30
2018-07-14T05:01:40.982Z,38.40
2018-07-14T05:04:10.125Z,49.43
2018-07-14T05:06:39.110Z,50.87
2018-07-14T05:09:08.355Z,48.33
2018-07-14T05:11:37.327Z,49.77
2018-07-14T05:14:06.353Z,50.17
2018-07-14T05:16:35.448Z,50.60
2018-07-14T05:19:04.449Z,54.60
2018-07-14T05:21:33.619Z,55.80
2018-07-14T05:24:03.423Z,54.03
2018-07-14T05:26:32.402Z,44.47
2018-07-14T05:29:02.107Z,50.93
2018-07-14T05:31:31.388Z,43.47
2018-07-14T05:34:00.379Z,51.80
2018-07-14T05:36:29.366Z,47.07
2018-07-14T05:38:59.137Z,44.07
2018-07-14T05:41:28.109Z,42.30
2018-07-14T05:43:57.122Z,53.63
2018-07-14T05:46:27.043Z,50.07
2018-07-14T05:48:56.239Z,52.70
2018-07-14T05:51:27.230Z,51.77
2018-07-14T05:53:56.273Z,52.47
2018-07-14T05:56:25.378Z,58.20
2018-07-14T05:58:54.323Z,48.67
2018-07-14T06:01:23.338Z,54.73
2018-07-14T06:03:53.264Z,44.20
2018-07-14T06:06:22.417Z,40.03
2018-07-14T06:08:53.246Z,43.60
2018-07-14T06:11:24.243Z,46.93
2018-07-14T06:13:53.229Z,43.77
2018-07-14T06:16:22.966Z,49.20
2018-07-14T06:18:51.942Z,43.00
2018-07-14T06:21:21.154Z,44.85
2018-07-14T06:23:50.506Z,44.70
2018-07-14T06:26:20.039Z,42.57
2018-07-14T06:28:49.002Z,38.00
2018-07-14T06:31:18.626Z,46.20
2018-07-14T06:33:47.595Z,40.90
2018-07-14T06:36:16.578Z,45.80
2018-07-14T06:38:46.067Z,48.87
2018-07-14T06:41:17.909Z,46.33
2018-07-14T06:43:46.875Z,47.90
2018-07-14T06:46:15.834Z,45.13
2018-07-14T06:48:44.850Z,43.70
2018-07-14T06:51:13.854Z,42.47
2018-07-14T06:53:42.829Z,48.00
2018-07-14T06:56:12.094Z,43.47
2018-07-14T06:58:41.052Z,39.23
2018-07-14T07:01:10.056Z,45.43
2018-07-14T07:03:39.005Z,41.60
2018-07-14T07:06:11.047Z,38.00
2018-07-14T07:08:40.088Z,39.07
2018-07-14T07:11:15.321Z,42.77
2018-07-14T07:13:53.970Z,38.40
2018-07-14T07:16:25.718Z,44.00
2018-07-14T07:18:58.034Z,42.23
2018-07-14T07:21:33.872Z,50.87
2018-07-14T07:24:04.623Z,41.37
2018-07-14T07:26:35.373Z,34.20
2018-07-14T07:29:05.670Z,38.07
2018-07-14T07:31:36.698Z,43.00
2018-07-14T07:34:06.828Z,36.87
2018-07-14T07:36:36.577Z,44.20
2018-07-14T07:39:06.492Z,35.40
2018-07-14T07:41:38.078Z,38.50
2018-07-14T07:44:08.658Z,35.50
2018-07-14T07:46:41.646Z,32.53
2018-07-14T07:49:10.698Z,38.33
2018-07-14T07:51:40.974Z,35.90
2018-07-14T07:54:10.008Z,30.53
2018-07-14T07:56:47.649Z,34.50
2018-07-14T07:59:18.356Z,28.73
2018-07-14T08:01:48.992Z,24.47
2018-07-14T08:04:21.643Z,24.47
2018-07-14T08:06:53.689Z,31.23
2018-07-14T08:09:22.776Z,25.13
2018-07-14T08:11:51.565Z,24.43
2018-07-14T08:14:21.664Z,22.63
2018-07-14T08:16:51.014Z,19.73
2018-07-14T08:19:21.036Z,17.70
2018-07-14T08:21:53.305Z,26.70
2018-07-14T08:24:22.834Z,23.30
2018-07-14T08:26:54.581Z,24.63
2018-07-14T08:29:23.278Z,18.33
2018-07-14T08:31:52.182Z,21.37
2018-07-14T08:34:20.893Z,15.80
2018-07-14T08:36:49.558Z,16.03
2018-07-14T08:39:20.198Z,21.47
2018-07-14T08:41:48.808Z,17.73
2018-07-14T08:44:17.408Z,19.97
2018-07-14T08:46:46.062Z,18.30
2018-07-14T08:49:16.351Z,21.90
2018-07-14T08:51:45.023Z,19.17
2018-07-14T08:54:13.621Z,20.47
2018-07-14T08:56:50.417Z,16.90
2018-07-14T08:59:20.867Z,24.30
2018-07-14T09:01:49.518Z,16.80
2018-07-14T09:04:18.481Z,17.73
2018-07-14T09:06:47.090Z,22.70
2018-07-14T09:09:15.727Z,18.43
2018-07-14T09:11:44.334Z,19.63
2018-07-14T09:14:13.016Z,21.87
2018-07-14T09:16:42.149Z,20.07
2018-07-14T09:19:10.762Z,19.47
2018-07-14T09:21:39.389Z,18.97
2018-07-14T09:24:07.999Z,22.33
2018-07-14T09:26:36.578Z,19.80
2018-07-14T09:29:05.306Z,18.43
2018-07-14T09:31:33.898Z,17.37
2018-07-14T09:34:02.508Z,26.03
2018-07-14T09:36:31.112Z,15.00
2018-07-14T09:38:59.740Z,18.40
2018-07-14T09:41:28.408Z,16.97
2018-07-14T09:43:57.134Z,20.37
2018-07-14T09:46:25.694Z,21.80
2018-07-14T09:48:54.323Z,18.33
2018-07-14T09:51:22.934Z,15.70
2018-07-14T09:53:51.537Z,13.13
2018-07-14T09:56:20.666Z,15.07
2018-07-14T09:58:50.373Z,12.60
2018-07-14T10:01:21.462Z,12.80
2018-07-14T10:03:50.060Z,12.37
2018-07-14T10:06:18.740Z,10.70
2018-07-14T10:08:47.388Z,10.93
2018-07-14T10:11:16.828Z,11.40
2018-07-14T10:13:53.938Z,9.57
2018-07-14T10:16:22.575Z,44.73
2018-07-14T10:18:51.154Z,18.90
2018-07-14T10:21:19.757Z,9.17
2018-07-14T10:23:48.374Z,10.57
2018-07-14T10:26:16.966Z,13.40
2018-07-14T10:28:45.570Z,13.73
2018-07-14T10:31:20.754Z,24.43
2018-07-14T10:33:49.394Z,18.77
2018-07-14T10:36:17.954Z,11.77
2018-07-14T10:38:46.609Z,8.60
2018-07-14T10:41:15.168Z,10.37
2018-07-14T10:43:43.810Z,10.07
2018-07-14T10:46:12.468Z,12.73
2018-07-14T10:48:41.614Z,57.23
2018-07-14T10:51:10.346Z,51.43
2018-07-14T10:53:39.561Z,25.67
2018-07-14T10:56:09.309Z,15.57
2018-07-14T10:58:38.199Z,12.10
2018-07-14T11:01:07.458Z,11.67
2018-07-14T11:03:37.546Z,14.07
2018-07-14T11:06:06.619Z,10.70
2018-07-14T11:08:36.411Z,10.17
2018-07-14T11:11:05.358Z,10.60
2018-07-14T11:13:34.334Z,12.07
2018-07-14T11:16:03.856Z,13.53
2018-07-14T11:18:33.030Z,14.80
2018-07-14T11:21:02.105Z,21.53
2018-07-14T11:23:31.133Z,12.23
2018-07-14T11:26:00.118Z,13.70
2018-07-14T11:28:29.111Z,12.93
2018-07-14T11:30:58.061Z,12.10
2018-07-14T11:33:26.794Z,14.40
2018-07-14T11:35:56.880Z,12.70
2018-07-14T11:38:25.869Z,22.67
2018-07-14T11:40:55.640Z,14.63
2018-07-14T11:43:25.254Z,14.97
2018-07-14T11:45:54.215Z,14.13
2018-07-14T11:48:24.297Z,12.07
2018-07-14T11:50:53.279Z,18.50
2018-07-14T11:53:22.399Z,12.80
2018-07-14T11:55:52.796Z,15.47
2018-07-14T11:58:23.155Z,17.97
2018-07-14T12:00:52.284Z,12.17
2018-07-14T12:03:21.414Z,17.53
2018-07-14T12:05:50.522Z,11.53
2018-07-14T12:08:19.660Z,14.13
2018-07-14T12:10:48.808Z,24.23
2018-07-14T12:13:17.963Z,13.63
2018-07-14T12:15:47.132Z,14.57
2018-07-14T12:18:17.020Z,16.80
2018-07-14T12:20:45.826Z,12.93
2018-07-14T12:23:16.767Z,66.87
2018-07-14T12:25:46.428Z,25.67
2018-07-14T12:28:15.527Z,14.27
2018-07-14T12:30:45.096Z,15.47
2018-07-14T12:33:14.209Z,14.40
2018-07-14T12:35:43.338Z,16.83
2018-07-14T12:38:12.471Z,15.63
2018-07-14T12:40:42.409Z,16.37
2018-07-14T12:43:11.534Z,12.60
2018-07-14T12:45:40.668Z,13.63
2018-07-14T12:48:11.045Z,20.47
2018-07-14T12:50:40.248Z,13.23
2018-07-14T12:53:09.358Z,15.33
2018-07-14T12:55:38.499Z,20.37
2018-07-14T12:58:07.731Z,17.27
2018-07-14T13:00:36.972Z,13.10
2018-07-14T13:03:12.824Z,16.90
2018-07-14T13:05:41.855Z,14.00
2018-07-14T13:08:11.294Z,15.47
2018-07-14T13:10:40.279Z,10.13
2018-07-14T13:13:09.238Z,11.43
2018-07-14T13:15:38.225Z,12.40
2018-07-14T13:18:07.195Z,13.40
2018-07-14T13:20:36.169Z,11.67
2018-07-14T13:23:05.133Z,13.90
2018-07-14T13:25:34.923Z,10.87
2018-07-14T13:28:03.911Z,17.87
2018-07-14T13:30:33.415Z,12.40
2018-07-14T13:33:02.427Z,13.60
2018-07-14T13:35:31.377Z,10.47
2018-07-14T13:38:00.361Z,13.13
2018-07-14T13:40:29.466Z,10.50
2018-07-14T13:42:59.376Z,15.70
2018-07-14T13:45:28.339Z,13.20
2018-07-14T13:47:57.333Z,14.47
2018-07-14T13:50:26.299Z,13.50
2018-07-14T13:52:55.299Z,23.33
2018-07-14T13:55:24.262Z,22.47
2018-07-14T13:57:53.770Z,21.87
2018-07-14T14:00:22.767Z,14.00
2018-07-14T14:02:51.726Z,12.60
2018-07-14T14:05:20.679Z,13.73
2018-07-14T14:07:50.183Z,14.50
2018-07-14T14:10:19.198Z,11.10
2018-07-14T14:12:48.204Z,11.93
2018-07-14T14:15:17.977Z,14.93
2018-07-14T14:17:47.588Z,12.40
2018-07-14T14:20:16.542Z,11.80
2018-07-14T14:22:45.531Z,13.77
2018-07-14T14:25:14.546Z,15.67
2018-07-14T14:27:43.529Z,10.17
2018-07-14T14:30:13.006Z,13.50
2018-07-14T14:32:42.419Z,10.33
2018-07-14T14:35:11.370Z,16.03
2018-07-14T14:37:40.355Z,10.73
2018-07-14T14:40:09.322Z,11.27
2018-07-14T14:42:38.287Z,9.10
2018-07-14T14:45:08.389Z,12.73
2018-07-14T14:47:38.155Z,12.57
2018-07-14T14:50:07.170Z,8.33
2018-07-14T14:52:36.152Z,8.70
2018-07-14T14:55:05.440Z,13.40
2018-07-14T14:57:41.746Z,9.93
2018-07-14T15:00:10.695Z,12.47
2018-07-14T15:02:39.699Z,13.93
2018-07-14T15:05:08.737Z,8.17
2018-07-14T15:07:37.705Z,20.33
2018-07-14T15:10:09.499Z,9.63
2018-07-14T15:12:40.061Z,8.80
2018-07-14T15:15:10.892Z,10.93
2018-07-14T15:17:39.861Z,10.73
2018-07-14T15:20:08.840Z,10.43
2018-07-14T15:22:37.834Z,12.10
2018-07-14T15:25:07.107Z,15.63
2018-07-14T15:27:36.055Z,13.40
2018-07-14T15:30:06.287Z,28.47
2018-07-14T15:32:35.497Z,11.97
2018-07-14T15:35:04.978Z,13.10
2018-07-14T15:37:34.124Z,10.77
2018-07-14T15:40:05.075Z,10.13
2018-07-14T15:42:36.005Z,18.80
2018-07-14T15:45:05.220Z,12.47
2018-07-14T15:47:34.348Z,10.93
2018-07-14T15:50:03.535Z,11.60
2018-07-14T15:52:33.024Z,18.17
2018-07-14T15:55:03.806Z,15.23
2018-07-14T15:57:33.112Z,17.33
2018-07-14T16:00:02.274Z,10.17
2018-07-14T16:02:31.477Z,13.93
2018-07-14T16:05:00.906Z,14.53
2018-07-14T16:07:30.100Z,11.83
2018-07-14T16:09:59.304Z,15.67
2018-07-14T16:12:29.811Z,14.10
2018-07-14T16:15:02.043Z,13.80
2018-07-14T16:17:31.913Z,10.40
2018-07-14T16:20:01.081Z,14.43
2018-07-14T16:22:30.219Z,18.73
2018-07-14T16:25:02.104Z,14.00
2018-07-14T16:27:31.678Z,13.10
2018-07-14T16:30:00.687Z,13.10
2018-07-14T16:32:29.674Z,14.17
2018-07-14T16:34:58.678Z,14.33
2018-07-14T16:37:28.187Z,13.13
2018-07-14T16:39:57.159Z,14.77
2018-07-14T16:42:26.134Z,13.73
2018-07-14T16:44:55.119Z,12.60
2018-07-14T16:47:24.121Z,18.40
2018-07-14T16:49:54.263Z,17.93
2018-07-14T16:52:23.260Z,19.57
2018-07-14T16:54:52.234Z,17.10
2018-07-14T16:57:21.223Z,16.30
2018-07-14T16:59:51.504Z,17.90
2018-07-14T17:02:20.519Z,42.67
2018-07-14T17:04:49.503Z,19.77
2018-07-14T17:07:18.502Z,18.37
2018-07-14T17:09:47.473Z,22.63
2018-07-14T17:12:16.461Z,23.13
2018-07-14T17:14:45.462Z,18.13
2018-07-14T17:17:14.604Z,16.40
2018-07-14T17:19:43.759Z,12.73
2018-07-14T17:22:12.900Z,26.70
2018-07-14T17:24:42.046Z,17.47
2018-07-14T17:27:11.264Z,30.33
2018-07-14T17:29:41.045Z,22.50
2018-07-14T17:32:10.227Z,26.20
2018-07-14T17:34:39.344Z,25.80
2018-07-14T17:37:08.474Z,23.07
2018-07-14T17:39:37.599Z,21.40
2018-07-14T17:42:07.244Z,21.50
2018-07-14T17:44:36.399Z,15.47
2018-07-14T17:47:08.431Z,20.07
2018-07-14T17:49:40.672Z,18.47
2018-07-14T17:52:13.708Z,16.70
2018-07-14T17:54:47.444Z,15.70
2018-07-14T17:57:16.842Z,27.33
2018-07-14T17:59:46.002Z,17.43
2018-07-14T18:02:15.099Z,15.47
2018-07-14T18:04:44.208Z,11.50
2018-07-14T18:07:13.348Z,15.30
2018-07-14T18:12:36.127Z,14.17
2018-07-14T18:15:05.459Z,15.90
2018-07-14T18:17:35.043Z,20.73
2018-07-14T18:20:04.670Z,23.37
2018-07-14T18:22:33.792Z,18.00
2018-07-14T18:25:03.466Z,13.77
2018-07-14T18:27:32.431Z,14.30
2018-07-14T18:30:01.400Z,19.70
2018-07-14T18:32:30.372Z,14.17
2018-07-14T18:34:59.365Z,14.33
2018-07-14T18:37:29.007Z,18.70
2018-07-14T18:39:59.787Z,11.67
2018-07-14T18:42:28.804Z,15.80
2018-07-14T18:44:57.786Z,18.53
2018-07-14T18:47:26.847Z,10.47
2018-07-14T18:49:55.839Z,12.30
2018-07-14T18:52:24.993Z,9.60
2018-07-14T18:54:53.852Z,18.70
2018-07-14T18:57:23.888Z,13.20
2018-07-14T19:02:28.119Z,10.93
2018-07-14T19:04:57.894Z,15.90
2018-07-14T19:07:26.876Z,14.90
2018-07-14T19:09:55.868Z,11.43
2018-07-14T19:12:24.875Z,10.97
2018-07-14T19:14:54.715Z,10.27
2018-07-14T19:17:23.646Z,12.50
2018-07-14T19:19:52.683Z,13.23
2018-07-14T19:22:21.717Z,10.30
2018-07-14T19:24:50.793Z,11.20
2018-07-14T19:27:19.787Z,11.53
2018-07-14T19:29:48.971Z,12.27
2018-07-14T19:32:17.978Z,10.67
2018-07-14T19:34:47.114Z,10.80
2018-07-14T19:37:16.085Z,10.70
2018-07-14T19:39:51.946Z,12.03
2018-07-14T19:42:25.442Z,11.30
2018-07-14T19:44:58.008Z,12.23
2018-07-14T19:47:32.052Z,12.27
2018-07-14T19:50:06.642Z,11.00
2018-07-14T19:52:38.687Z,10.60
2018-07-14T19:55:12.860Z,14.83
2018-07-14T19:57:45.148Z,11.33
2018-07-14T20:00:25.299Z,10.50
2018-07-14T20:03:02.352Z,12.30
2018-07-14T20:05:36.170Z,7.13
2018-07-14T20:08:16.612Z,11.17
2018-07-14T20:10:50.539Z,8.83
2018-07-14T20:13:19.571Z,18.33
2018-07-14T20:15:48.596Z,10.30
2018-07-14T20:18:17.623Z,10.67
2018-07-14T20:20:46.656Z,9.73
2018-07-14T20:23:16.465Z,9.80
2018-07-14T20:25:46.327Z,12.50
2018-07-14T20:28:15.347Z,8.17
2018-07-14T20:30:44.367Z,8.07
2018-07-14T20:33:14.140Z,9.93
2018-07-14T20:35:43.152Z,9.53
2018-07-14T20:38:12.152Z,9.30
2018-07-14T20:40:41.207Z,12.63
2018-07-14T20:43:10.210Z,11.03
2018-07-14T20:45:39.948Z,9.77
2018-07-14T20:48:08.954Z,7.43
2018-07-14T20:50:40.859Z,8.13
2018-07-14T20:53:09.850Z,7.10
2018-07-14T20:55:38.859Z,7.23
2018-07-14T20:58:07.876Z,7.33
2018-07-14T21:00:36.946Z,6.57
2018-07-14T21:03:05.950Z,7.93
2018-07-14T21:05:34.970Z,6.10
2018-07-14T21:08:04.150Z,9.50
2018-07-14T21:10:33.187Z,7.50
2018-07-14T21:13:02.215Z,7.90
2018-07-14T21:15:32.367Z,11.03
2018-07-14T21:18:01.375Z,6.67
2018-07-14T21:20:30.403Z,6.27
2018-07-14T21:22:59.416Z,5.47
2018-07-14T21:25:28.971Z,6.17
2018-07-14T21:27:58.164Z,8.00
2018-07-14T21:30:27.191Z,10.03
2018-07-14T21:32:56.196Z,6.83
2018-07-14T21:35:25.231Z,11.00
2018-07-14T21:37:54.222Z,7.00
2018-07-14T21:40:24.458Z,6.07
2018-07-14T21:42:53.473Z,9.43
2018-07-14T21:45:22.490Z,6.93
2018-07-14T21:47:52.184Z,7.70
2018-07-14T21:50:21.252Z,25.10
2018-07-14T21:52:50.270Z,5.60
2018-07-14T21:55:19.319Z,8.87
2018-07-14T21:57:48.316Z,5.80
2018-07-14T22:00:29.027Z,5.33
2018-07-14T22:02:58.029Z,5.43
2018-07-14T22:05:27.085Z,6.63
2018-07-14T22:07:56.129Z,6.97
2018-07-14T22:10:25.184Z,7.50
2018-07-14T22:12:54.984Z,5.73
2018-07-14T22:15:24.110Z,6.13
2018-07-14T22:17:53.684Z,5.10
2018-07-14T22:20:24.551Z,8.60
2018-07-14T22:22:54.318Z,5.50
2018-07-14T22:25:23.313Z,5.17
2018-07-14T22:27:52.270Z,6.70
2018-07-14T22:30:21.280Z,5.63
2018-07-14T22:32:50.231Z,5.73
2018-07-14T22:35:19.225Z,5.43
2018-07-14T22:37:48.179Z,5.73
2018-07-14T22:40:17.144Z,9.03
2018-07-14T22:42:46.953Z,11.00
2018-07-14T22:45:15.941Z,6.63
2018-07-14T22:47:45.339Z,5.33
2018-07-14T22:50:14.363Z,7.43
2018-07-14T22:52:43.323Z,5.50
2018-07-14T22:55:12.321Z,6.40
2018-07-14T22:57:41.272Z,6.87
2018-07-14T23:00:10.240Z,6.00
2018-07-14T23:02:39.219Z,5.60
2018-07-14T23:05:08.235Z,7.17
2018-07-14T23:07:37.187Z,7.10
2018-07-14T23:10:06.801Z,5.90
2018-07-14T23:12:35.745Z,8.80
2018-07-14T23:15:04.970Z,7.93
2018-07-14T23:17:33.928Z,6.80
2018-07-14T23:20:02.878Z,7.43
2018-07-14T23:22:31.855Z,8.60
2018-07-14T23:25:00.887Z,6.73
2018-07-14T23:27:29.856Z,8.60
2018-07-14T23:29:58.903Z,6.83
2018-07-14T23:32:27.873Z,6.63
2018-07-14T23:34:56.843Z,6.90
2018-07-14T23:37:26.710Z,6.97
2018-07-14T23:39:55.393Z,7.17
2018-07-14T23:42:24.254Z,7.13
2018-07-14T23:44:53.217Z,6.40
2018-07-14T23:47:22.192Z,7.30
2018-07-14T23:49:51.164Z,10.03
2018-07-14T23:52:20.178Z,7.17
2018-07-14T23:54:49.143Z,7.50
2018-07-14T23:57:18.139Z,6.80
2018-07-14T23:59:47.129Z,9.30
